Time;durP1;ratioP1;P1;durP2;ratioP2;P2;SDS_P1;SDS_P2;PMS_P1;PMS_P2;Temp;Humidity;BMP_temperature;BMP_pressure;BME280_temperature;BME280_humidity;BME280_pressure;Samples;Min_cycle;Max_cycle;Signal;HPM_P1;HPM_P2
2022/09/06 00:00:31;;;;;;;1.67;1.47;;;;;;;12.52;72.35;101227.23;458417;114;923070;-75
2022/09/06 00:01:34;;;;;;;1.79;1.69;;;;;;;12.45;71.88;101225.57;456462;113;923715;-75
2022/09/06 00:02:37;;;;;;;2.04;1.44;;;;;;;12.36;71.56;101230.39;459676;113;922563;-75
2022/09/06 00:03:40;;;;;;;1.61;1.48;;;;;;;12.27;71.49;101225.36;456984;113;922992;-74
2022/09/06 00:04:44;;;;;;;1.68;1.54;;;;;;;12.17;71.49;101225.78;459144;113;923003;-74
2022/09/06 00:05:47;;;;;;;1.44;1.34;;;;;;;12.11;71.74;101224.72;457984;113;930328;-74
2022/09/06 00:06:51;;;;;;;1.86;1.76;;;;;;;12.10;72.14;101223.04;458155;113;923155;-74
2022/09/06 00:07:54;;;;;;;2.00;1.66;;;;;;;12.12;72.48;101217.37;459474;114;930332;-75
2022/09/06 00:08:57;;;;;;;2.17;1.68;;;;;;;12.15;72.80;101221.56;460441;114;923108;-73
2022/09/06 00:10:01;;;;;;;1.87;1.67;;;;;;;12.20;73.08;101227.23;458238;113;922477;-72
2022/09/06 00:11:05;;;;;;;1.64;1.41;;;;;;;12.25;73.36;101224.71;461885;113;923040;-74
2022/09/06 00:12:08;;;;;;;1.83;1.63;;;;;;;12.28;73.36;101221.58;463245;114;930305;-74
2022/09/06 00:13:12;;;;;;;1.54;1.44;;;;;;;12.31;73.48;101221.98;463500;114;923079;-74
2022/09/06 00:14:15;;;;;;;1.61;1.50;;;;;;;12.35;73.62;101216.95;459997;114;923135;-74
2022/09/06 00:15:18;;;;;;;1.68;1.48;;;;;;;12.38;73.55;101216.52;458286;115;922959;-75
2022/09/06 00:16:23;;;;;;;1.71;1.55;;;;;;;12.40;73.12;101219.89;455645;115;923163;-74
2022/09/06 00:17:30;;;;;;;1.54;1.42;;;;;;;12.37;72.39;101220.30;452980;116;923198;-74
2022/09/06 00:18:33;;;;;;;1.78;1.53;;;;;;;12.31;71.94;101221.14;453192;116;922525;-74
2022/09/06 00:19:36;;;;;;;1.86;1.69;;;;;;;12.28;71.94;101218.84;455132;115;923014;-74
2022/09/06 00:20:42;;;;;;;1.51;1.41;;;;;;;12.27;72.13;101214.42;456248;116;922549;-74
2022/09/06 00:21:45;;;;;;;1.67;1.57;;;;;;;12.28;72.44;101219.69;453124;116;923049;-74
2022/09/06 00:22:49;;;;;;;1.57;1.46;;;;;;;12.30;72.47;101216.72;456479;115;922988;-74
2022/09/06 00:23:52;;;;;;;2.28;1.49;;;;;;;12.30;72.36;101217.56;456458;116;922663;-72
2022/09/06 00:24:56;;;;;;;1.84;1.66;;;;;;;12.28;71.98;101216.95;456629;115;923133;-74
2022/09/06 00:26:04;;;;;;;1.90;1.57;;;;;;;12.25;71.42;101214.62;454743;115;922648;-74
2022/09/06 00:27:08;;;;;;;1.69;1.59;;;;;;;12.20;71.49;101222.61;453054;116;923176;-74
2022/09/06 00:28:11;;;;;;;1.67;1.52;;;;;;;12.22;71.79;101214.20;453227;116;922520;-74
2022/09/06 00:29:14;;;;;;;1.97;1.64;;;;;;;12.23;71.94;101215.90;456387;115;923040;-74
2022/09/06 00:30:18;;;;;;;1.69;1.54;;;;;;;12.24;71.99;101221.13;455956;114;922530;-74
2022/09/06 00:31:23;;;;;;;1.48;1.39;;;;;;;12.26;72.14;101216.31;461390;114;930241;-74
2022/09/06 00:32:27;;;;;;;2.54;1.72;;;;;;;12.30;72.37;101219.45;464339;114;923021;-74
2022/09/06 00:33:30;;;;;;;2.69;1.48;;;;;;;12.32;72.17;101220.09;463925;114;923058;-74
2022/09/06 00:34:33;;;;;;;2.29;1.56;;;;;;;12.30;72.01;101211.25;451621;115;922820;-74
2022/09/06 00:35:37;;;;;;;1.96;1.37;;;;;;;12.31;71.98;101218.41;453861;115;922889;-74
2022/09/06 00:36:40;;;;;;;1.92;1.81;;;;;;;12.31;72.11;101219.25;457272;115;922632;-74
2022/09/06 00:37:43;;;;;;;2.66;1.34;;;;;;;12.32;71.93;101209.16;451685;115;922528;-74
2022/09/06 00:38:46;;;;;;;4.39;1.57;;;;;;;12.31;71.68;101210.20;450454;115;922611;-74
2022/09/06 00:39:49;;;;;;;2.84;1.64;;;;;;;12.29;71.15;101215.06;455679;115;922563;-74
2022/09/06 00:40:53;;;;;;;1.86;1.62;;;;;;;12.24;70.83;101215.66;451064;116;923151;-74
2022/09/06 00:41:56;;;;;;;2.21;1.66;;;;;;;12.19;70.49;101220.08;455447;115;922558;-74
2022/09/06 00:42:59;;;;;;;1.98;1.60;;;;;;;12.13;70.12;101219.87;451539;115;923704;-74
2022/09/06 00:44:02;;;;;;;1.56;1.38;;;;;;;12.09;70.32;101215.88;453144;115;922521;-74
2022/09/06 00:45:08;;;;;;;1.47;1.37;;;;;;;12.05;70.24;101211.89;453711;116;922538;-74
2022/09/06 00:46:15;;;;;;;1.58;1.48;;;;;;;12.03;70.00;101213.14;453177;115;925588;-74
2022/09/06 00:47:19;;;;;;;1.57;1.47;;;;;;;12.01;70.01;101221.56;454132;116;923234;-74
2022/09/06 00:48:22;;;;;;;1.72;1.45;;;;;;;11.98;69.88;101215.66;451066;117;922491;-74
2022/09/06 00:49:29;;;;;;;1.96;1.27;;;;;;;11.94;69.97;101217.97;450330;117;922909;-74
2022/09/06 00:50:33;;;;;;;2.04;1.42;;;;;;;11.93;70.33;101220.91;450160;117;930286;-74
2022/09/06 00:51:36;;;;;;;1.54;1.37;;;;;;;11.96;70.63;101220.51;452445;115;922603;-74
2022/09/06 00:52:42;;;;;;;2.15;1.61;;;;;;;11.98;70.89;101219.23;451509;115;922560;-73
2022/09/06 00:53:45;;;;;;;2.90;1.50;;;;;;;12.01;71.07;101213.37;452735;115;923074;-73
2022/09/06 00:54:49;;;;;;;3.46;1.29;;;;;;;12.03;71.14;101213.14;450383;117;923045;-73
2022/09/06 00:55:53;;;;;;;1.28;1.19;;;;;;;12.05;71.32;101217.36;450354;117;930381;-74
2022/09/06 00:56:57;;;;;;;1.80;1.31;;;;;;;12.08;71.68;101211.45;450328;115;922865;-74
2022/09/06 00:58:01;;;;;;;1.49;1.39;;;;;;;12.12;71.62;101217.37;452989;115;930252;-72
2022/09/06 00:59:04;;;;;;;1.85;1.64;;;;;;;12.18;71.71;101212.95;457188;115;922624;-72
2022/09/06 01:00:09;;;;;;;4.61;1.83;;;;;;;12.18;71.71;101212.95;460141;114;923144;-73
2022/09/06 01:01:12;;;;;;;2.87;1.61;;;;;;;12.19;71.74;101209.98;461858;114;930303;-73
2022/09/06 01:02:15;;;;;;;1.77;1.25;;;;;;;12.19;71.76;101207.25;461498;114;922578;-73
2022/09/06 01:03:21;;;;;;;2.15;1.52;;;;;;;12.20;71.79;101213.56;461861;114;923032;-73
2022/09/06 01:04:26;;;;;;;1.73;1.53;;;;;;;12.22;71.39;101215.05;459016;114;922551;-73
2022/09/06 01:05:33;;;;;;;1.71;1.56;;;;;;;12.19;71.09;101214.61;458120;113;922576;-73
2022/09/06 01:06:49;;;;;;;1.83;1.68;;;;;;;12.15;71.13;101218.83;452859;114;930461;-74
2022/09/06 01:08:04;;;;;;;2.08;1.63;;;;;;;12.12;71.03;101217.37;462382;113;922545;-73
2022/09/06 01:09:33;;;;;;;1.65;1.55;;;;;;;12.09;71.03;101213.15;459673;113;922535;-73
2022/09/06 01:11:00;;;;;;;2.13;1.58;;;;;;;12.09;71.34;101218.61;461225;113;923162;-73
2022/09/06 01:12:41;;;;;;;2.89;2.19;;;;;;;12.09;71.63;101217.77;461817;114;922541;-73
2022/09/06 01:13:54;;;;;;;1.85;1.75;;;;;;;12.09;71.68;101217.77;463636;114;922511;-73
2022/09/06 01:15:24;;;;;;;2.36;1.87;;;;;;;12.08;71.83;101219.66;460350;113;922537;-73
2022/09/06 01:16:46;;;;;;;2.02;1.56;;;;;;;12.09;71.99;101215.88;452537;115;922550;-73
2022/09/06 01:18:10;;;;;;;2.18;1.89;;;;;;;12.09;72.08;101215.03;451579;115;930317;-73
2022/09/06 01:19:39;;;;;;;2.05;1.77;;;;;;;12.09;72.26;101215.03;453411;115;923064;-73
2022/09/06 01:21:08;;;;;;;1.91;1.73;;;;;;;12.08;72.26;101216.92;450306;115;922943;-73
2022/09/06 01:22:15;;;;;;;5.52;2.36;;;;;;;12.07;72.27;101212.50;449794;115;923047;-74
2022/09/06 01:23:27;;;;;;;2.06;1.96;;;;;;;12.06;72.25;101208.11;454186;115;922722;-73
2022/09/06 01:24:34;;;;;;;3.71;1.91;;;;;;;12.05;72.27;101216.52;445679;115;922935;-73
2022/09/06 01:25:50;;;;;;;2.48;2.11;;;;;;;12.04;72.15;101215.67;450453;115;923297;-73
2022/09/06 01:27:16;;;;;;;2.00;1.83;;;;;;;12.04;72.26;101212.94;451201;115;923183;-75
2022/09/06 01:28:32;;;;;;;2.09;1.89;;;;;;;12.04;72.17;101218.41;441078;119;922783;-74
2022/09/06 01:30:00;;;;;;;1.95;1.85;;;;;;;12.02;72.20;101212.29;452439;115;923312;-73
2022/09/06 01:31:26;;;;;;;3.03;1.86;;;;;;;12.00;71.65;101221.77;458484;113;922985;-73
2022/09/06 01:32:35;;;;;;;2.01;1.89;;;;;;;11.94;71.27;101215.24;459670;113;922594;-73
2022/09/06 01:34:06;;;;;;;2.07;1.82;;;;;;;11.88;70.99;101220.69;457787;113;922686;-74
2022/09/06 01:35:27;;;;;;;2.21;2.01;;;;;;;11.81;70.86;101215.20;459603;114;923036;-74
2022/09/06 01:36:44;;;;;;;3.46;1.62;;;;;;;11.78;71.20;101226.56;457808;114;923220;-73
2022/09/06 01:37:49;;;;;;;2.28;1.71;;;;;;;11.77;71.43;101222.14;440216;114;923124;-74
2022/09/06 01:38:52;;;;;;;2.92;1.89;;;;;;;11.77;71.57;101219.41;456419;114;922593;-74
2022/09/06 01:39:56;;;;;;;1.99;1.87;;;;;;;11.76;71.36;101223.19;456500;114;922601;-74
2022/09/06 01:40:59;;;;;;;2.99;2.29;;;;;;;11.74;70.92;101219.84;457081;114;922718;-74
2022/09/06 01:42:21;;;;;;;2.12;1.88;;;;;;;11.71;70.96;101222.94;461658;115;923030;-74
2022/09/06 01:43:27;;;;;;;2.70;1.85;;;;;;;11.69;71.03;101230.48;458870;114;923192;-74
2022/09/06 01:44:32;;;;;;;2.54;2.18;;;;;;;11.68;71.20;101226.94;455942;114;922953;-74
2022/09/06 01:45:55;;;;;;;2.42;2.11;;;;;;;11.69;71.33;101234.06;456293;114;923138;-74
2022/09/06 01:47:11;;;;;;;2.38;1.90;;;;;;;11.69;71.34;101234.06;458155;114;922925;-72
2022/09/06 01:48:36;;;;;;;2.41;1.87;;;;;;;11.68;70.89;101231.56;460197;115;922510;-73
2022/09/06 01:49:52;;;;;;;2.14;1.87;;;;;;;11.64;70.60;101230.27;461433;115;923028;-74
2022/09/06 01:51:31;;;;;;;2.43;2.11;;;;;;;11.58;70.27;101234.66;460975;115;923063;-75
2022/09/06 01:52:44;;;;;;;2.29;2.14;;;;;;;11.53;70.39;101237.17;457114;114;922607;-73
2022/09/06 01:53:54;;;;;;;1.87;1.77;;;;;;;11.49;70.73;101243.25;455564;114;922904;-75
2022/09/06 01:55:25;;;;;;;2.98;2.08;;;;;;;11.49;71.03;101238.63;455586;114;922822;-72
2022/09/06 01:56:44;;;;;;;2.09;1.67;;;;;;;11.52;71.27;101237.40;457912;114;922570;-74
2022/09/06 01:58:13;;;;;;;1.98;1.81;;;;;;;11.54;71.59;101236.13;457180;114;922932;-73
2022/09/06 01:59:42;;;;;;;1.65;1.55;;;;;;;11.55;71.55;101235.08;457169;115;922484;-74
2022/09/06 02:00:56;;;;;;;2.38;1.98;;;;;;;11.58;71.69;101228.35;455655;115;922882;-74
2022/09/06 02:02:10;;;;;;;1.90;1.80;;;;;;;11.69;71.95;101225.87;476961;110;946870;-73
2022/09/06 02:03:19;;;;;;;2.08;1.87;;;;;;;11.60;71.93;101232.58;465360;113;922996;-75
2022/09/06 02:04:29;;;;;;;2.44;2.20;;;;;;;11.61;71.88;101233.42;457352;113;922987;-74
2022/09/06 02:05:39;;;;;;;1.81;1.68;;;;;;;11.61;71.71;101234.27;457304;116;922580;-76
2022/09/06 02:06:46;;;;;;;1.87;1.77;;;;;;;11.61;71.56;101227.96;457538;115;922581;-74
2022/09/06 02:07:51;;;;;;;2.96;1.80;;;;;;;11.59;71.30;101236.34;457255;116;923057;-73
2022/09/06 02:09:01;;;;;;;2.00;1.87;;;;;;;11.58;71.01;101228.35;457268;114;922580;-74
2022/09/06 02:10:08;;;;;;;2.78;1.83;;;;;;;11.54;70.69;101227.09;457228;115;922839;-74
2022/09/06 02:11:13;;;;;;;2.66;1.76;;;;;;;11.52;70.69;101234.66;457253;116;922911;-74
2022/09/06 02:12:19;;;;;;;2.10;1.69;;;;;;;11.51;70.76;101238.44;457289;116;922616;-74
2022/09/06 02:13:24;;;;;;;2.35;2.16;;;;;;;11.51;70.86;101235.70;457287;116;923123;-73
2022/09/06 02:14:34;;;;;;;2.57;2.16;;;;;;;11.50;70.57;101231.28;457269;116;923013;-73
2022/09/06 02:15:41;;;;;;;2.35;2.15;;;;;;;11.48;70.52;101227.91;457046;115;923118;-73
2022/09/06 02:16:47;;;;;;;5.75;1.96;;;;;;;11.47;70.61;101239.87;456959;116;923079;-73
2022/09/06 02:17:53;;;;;;;2.02;1.92;;;;;;;11.45;70.74;101231.91;457176;116;923000;-73
2022/09/06 02:19:09;;;;;;;1.90;1.80;;;;;;;11.46;70.63;101240.94;456621;116;922737;-73
2022/09/06 02:20:16;;;;;;;2.09;1.99;;;;;;;11.45;70.70;101240.09;457068;116;922536;-73
2022/09/06 02:21:23;;;;;;;2.58;2.31;;;;;;;11.46;70.65;101238.21;457139;116;923029;-73
2022/09/06 02:22:30;;;;;;;4.62;2.35;;;;;;;11.44;70.62;101237.56;456992;116;923691;-73
2022/09/06 02:23:37;;;;;;;1.94;1.83;;;;;;;11.44;70.78;101243.02;457182;116;922490;-73
2022/09/06 02:24:43;;;;;;;2.14;2.04;;;;;;;11.46;70.96;101241.79;457215;116;923052;-73
2022/09/06 02:25:55;;;;;;;1.84;1.69;;;;;;;11.47;71.04;101229.79;457235;116;922518;-73
2022/09/06 02:26:58;;;;;;;2.10;1.78;;;;;;;11.49;71.03;101237.79;457184;116;922890;-73
2022/09/06 02:28:02;;;;;;;1.87;1.64;;;;;;;11.51;70.96;101236.55;457424;116;923005;-73
2022/09/06 02:29:05;;;;;;;1.72;1.61;;;;;;;11.52;70.87;101234.66;457238;116;923056;-73
2022/09/06 02:30:10;;;;;;;2.13;1.74;;;;;;;11.53;71.09;101242.63;455139;116;930517;-73
2022/09/06 02:31:19;;;;;;;2.22;1.69;;;;;;;11.54;70.96;101235.28;455714;116;930472;-74
2022/09/06 02:32:25;;;;;;;3.67;1.74;;;;;;;11.55;70.97;101235.08;456877;115;922570;-74
2022/09/06 02:33:30;;;;;;;2.97;1.58;;;;;;;11.55;70.94;101232.36;457279;114;923484;-74
2022/09/06 02:34:39;;;;;;;1.91;1.72;;;;;;;11.58;71.03;101233.81;449438;118;923034;-74
2022/09/06 02:35:45;;;;;;;1.76;1.66;;;;;;;11.57;70.73;101238.47;449385;118;922548;-74
2022/09/06 02:36:48;;;;;;;2.58;1.78;;;;;;;11.55;70.33;101234.24;449382;118;922664;-74
2022/09/06 02:37:52;;;;;;;3.61;1.84;;;;;;;11.52;70.28;101240.13;449490;118;922960;-74
2022/09/06 02:38:55;;;;;;;1.61;1.51;;;;;;;11.49;70.03;101245.98;449620;118;923206;-74
2022/09/06 02:39:59;;;;;;;2.00;1.90;;;;;;;11.45;69.74;101240.09;449547;118;923017;-74
2022/09/06 02:41:03;;;;;;;3.56;1.82;;;;;;;11.40;69.59;101245.33;449562;118;930331;-74
2022/09/06 02:42:09;;;;;;;2.10;1.91;;;;;;;11.37;69.62;101247.61;449429;118;923576;-74
2022/09/06 02:43:13;;;;;;;1.92;1.67;;;;;;;11.30;69.57;101248.41;449409;118;930347;-73
2022/09/06 02:44:16;;;;;;;1.92;1.80;;;;;;;11.28;69.65;101246.95;449629;116;922970;-73
2022/09/06 02:45:19;;;;;;;2.11;1.96;;;;;;;11.28;69.95;101250.53;449666;118;923074;-74
2022/09/06 02:46:23;;;;;;;2.32;1.99;;;;;;;11.30;70.27;101244.88;449577;118;923062;-74
2022/09/06 02:47:26;;;;;;;2.04;1.86;;;;;;;11.33;70.49;101249.91;449518;117;922851;-73
2022/09/06 02:48:29;;;;;;;2.33;1.75;;;;;;;11.38;70.64;101252.03;449579;116;923436;-74
2022/09/06 02:49:32;;;;;;;2.86;1.93;;;;;;;11.40;70.74;101252.67;449624;117;922543;-74
2022/09/06 02:50:35;;;;;;;2.22;1.70;;;;;;;11.45;70.78;101250.17;449656;118;922912;-73
2022/09/06 02:51:39;;;;;;;2.08;1.84;;;;;;;11.47;70.68;101256.25;449597;118;922789;-73
2022/09/06 02:52:42;;;;;;;1.77;1.67;;;;;;;11.47;70.34;101248.91;449586;118;923101;-73
2022/09/06 02:53:45;;;;;;;2.00;1.87;;;;;;;11.44;69.97;101254.79;449621;118;922829;-73
2022/09/06 02:54:48;;;;;;;2.41;1.80;;;;;;;11.40;69.79;101252.67;454901;116;922886;-73
2022/09/06 02:55:51;;;;;;;2.36;1.77;;;;;;;11.37;69.96;101251.18;457454;116;922978;-73
2022/09/06 02:56:54;;;;;;;1.89;1.77;;;;;;;11.37;70.10;101250.34;457450;115;923198;-73
2022/09/06 02:57:57;;;;;;;1.79;1.69;;;;;;;11.38;70.02;101254.76;457473;116;922549;-73
2022/09/06 02:59:01;;;;;;;2.06;1.90;;;;;;;11.38;70.22;101258.33;456061;114;923017;-74
2022/09/06 03:00:05;;;;;;;2.39;1.75;;;;;;;11.40;70.37;101258.14;455663;116;922953;-73
2022/09/06 03:01:08;;;;;;;2.20;1.99;;;;;;;11.42;70.55;101253.30;455663;116;922976;-73
2022/09/06 03:02:11;;;;;;;1.81;1.71;;;;;;;11.44;70.61;101256.67;455756;116;930817;-73
2022/09/06 03:03:15;;;;;;;2.33;1.78;;;;;;;11.46;70.77;101255.44;455840;116;922454;-73
2022/09/06 03:04:18;;;;;;;1.91;1.79;;;;;;;11.47;70.83;101253.52;455866;116;930383;-74
2022/09/06 03:05:22;;;;;;;2.08;1.87;;;;;;;11.48;70.67;101256.06;455940;116;922556;-74
2022/09/06 03:06:26;;;;;;;2.22;1.69;;;;;;;11.49;70.54;101256.91;455784;116;923086;-74
2022/09/06 03:07:29;;;;;;;2.10;1.90;;;;;;;11.48;70.51;101258.79;455943;116;930430;-74
2022/09/06 03:08:33;;;;;;;1.99;1.77;;;;;;;11.49;70.46;101263.21;455889;116;922891;-74
2022/09/06 03:09:36;;;;;;;2.05;1.84;;;;;;;11.49;70.26;101254.17;455866;116;922971;-74
2022/09/06 03:10:39;;;;;;;2.17;1.99;;;;;;;11.45;69.82;101255.64;455909;116;922934;-74
2022/09/06 03:11:42;;;;;;;1.99;1.86;;;;;;;11.45;69.82;101255.64;455940;116;922524;-74
2022/09/06 03:12:46;;;;;;;2.49;1.87;;;;;;;11.43;69.82;101253.10;455945;116;922957;-74
2022/09/06 03:13:49;;;;;;;1.87;1.77;;;;;;;11.43;69.96;101260.45;455754;116;922924;-73
2022/09/06 03:14:52;;;;;;;2.02;1.90;;;;;;;11.43;70.01;101264.02;455807;116;922696;-73
2022/09/06 03:15:59;;;;;;;1.92;1.81;;;;;;;11.45;70.00;101266.56;457100;116;922746;-73
2022/09/06 03:17:03;;;;;;;1.96;1.81;;;;;;;11.44;70.02;101265.72;457252;116;923042;-73
2022/09/06 03:18:06;;;;;;;2.01;1.91;;;;;;;11.44;70.10;101267.59;457324;116;930344;-73
2022/09/06 03:19:09;;;;;;;2.49;2.03;;;;;;;11.43;70.00;101266.75;457465;116;922980;-73
2022/09/06 03:20:13;;;;;;;2.35;1.92;;;;;;;11.42;69.69;101273.25;457393;116;923094;-72
2022/09/06 03:21:16;;;;;;;2.63;2.44;;;;;;;11.39;69.56;101270.10;457486;116;923101;-73
2022/09/06 03:22:20;;;;;;;4.56;2.30;;;;;;;11.36;69.62;101273.25;457325;116;922632;-73
2022/09/06 03:23:25;;;;;;;2.86;2.30;;;;;;;11.34;69.74;101267.14;457466;116;922525;-73
2022/09/06 03:24:29;;;;;;;2.06;1.88;;;;;;;11.33;69.77;101269.02;457270;116;922561;-73
2022/09/06 03:25:32;;;;;;;1.76;1.64;;;;;;;11.32;69.81;101270.06;457491;116;923316;-73
2022/09/06 03:26:35;;;;;;;2.17;1.99;;;;;;;11.33;69.83;101277.22;457390;116;923022;-73
2022/09/06 03:27:38;;;;;;;2.15;1.89;;;;;;;11.34;69.64;101275.33;457474;116;922664;-72
2022/09/06 03:28:42;;;;;;;2.14;1.86;;;;;;;11.34;69.63;101278.06;457512;116;922551;-73
2022/09/06 03:29:45;;;;;;;2.28;2.01;;;;;;;11.34;69.78;101273.45;457508;116;922468;-73
2022/09/06 03:30:50;;;;;;;1.68;1.58;;;;;;;11.35;69.79;101283.33;457566;115;923009;-73
2022/09/06 03:31:53;;;;;;;2.70;1.83;;;;;;;11.39;69.87;101283.75;457295;116;923084;-74
2022/09/06 03:32:58;;;;;;;1.91;1.81;;;;;;;11.40;69.95;101286.29;457480;115;922594;-73
2022/09/06 03:34:03;;;;;;;2.19;2.03;;;;;;;11.42;69.94;101283.33;453333;116;922545;-74
2022/09/06 03:35:09;;;;;;;2.19;2.09;;;;;;;11.44;69.97;101278.52;449145;118;922521;-73
2022/09/06 03:36:12;;;;;;;2.23;1.94;;;;;;;11.46;69.98;101279.17;449568;118;922872;-73
2022/09/06 03:37:16;;;;;;;1.62;1.52;;;;;;;11.47;69.97;101276.22;449632;118;923125;-73
2022/09/06 03:38:19;;;;;;;1.89;1.79;;;;;;;11.47;70.01;101276.22;449601;118;922925;-73
2022/09/06 03:39:23;;;;;;;2.15;1.92;;;;;;;11.49;69.83;101276.02;449512;117;922551;-73
2022/09/06 03:40:26;;;;;;;2.81;2.23;;;;;;;11.47;69.25;101270.75;449567;118;922956;-73
2022/09/06 03:41:29;;;;;;;2.27;1.91;;;;;;;11.43;68.71;101280.41;449611;118;922922;-73
2022/09/06 03:42:32;;;;;;;3.10;1.99;;;;;;;11.38;68.50;101282.06;449634;118;923110;-73
2022/09/06 03:43:35;;;;;;;2.33;1.98;;;;;;;11.32;68.59;101274.68;441440;120;923041;-73
2022/09/06 03:44:39;;;;;;;2.02;1.92;;;;;;;11.29;68.76;101284.14;441793;118;923117;-73
2022/09/06 03:45:50;;;;;;;2.12;1.87;;;;;;;11.29;69.00;101275.94;449536;118;930416;-73
2022/09/06 03:46:54;;;;;;;1.92;1.82;;;;;;;11.30;69.15;101281.18;449422;118;923056;-73
2022/09/06 03:47:57;;;;;;;1.71;1.61;;;;;;;11.30;69.41;101274.91;449617;118;922553;-73
2022/09/06 03:49:00;;;;;;;2.47;2.24;;;;;;;11.33;69.46;101279.09;449604;117;922697;-74
2022/09/06 03:50:05;;;;;;;1.91;1.81;;;;;;;11.35;69.59;101279.75;449595;118;923016;-73
2022/09/06 03:51:08;;;;;;;2.65;1.76;;;;;;;11.36;69.86;101282.26;455361;116;930380;-73
2022/09/06 03:52:11;;;;;;;3.23;1.97;;;;;;;11.40;69.90;101274.52;457357;116;930333;-73
2022/09/06 03:53:16;;;;;;;1.82;1.72;;;;;;;11.43;69.94;101282.30;457418;116;923138;-73
2022/09/06 03:54:19;;;;;;;2.28;2.03;;;;;;;11.44;69.79;101282.09;457219;116;923017;-73
2022/09/06 03:55:22;;;;;;;1.98;1.83;;;;;;;11.45;69.71;101282.94;457419;116;922602;-73
2022/09/06 03:56:25;;;;;;;1.72;1.62;;;;;;;11.45;69.58;101280.21;457393;116;923064;-73
2022/09/06 03:57:29;;;;;;;2.63;2.43;;;;;;;11.44;69.35;101282.09;457361;116;930406;-73
2022/09/06 03:58:32;;;;;;;2.30;1.84;;;;;;;11.41;69.03;101281.67;456899;116;922850;-73
2022/09/06 03:59:35;;;;;;;2.11;1.93;;;;;;;11.36;68.69;101284.17;455726;116;923008;-73
2022/09/06 04:00:38;;;;;;;2.91;2.05;;;;;;;11.34;68.60;101286.25;455747;116;930301;-73
2022/09/06 04:01:42;;;;;;;2.27;1.98;;;;;;;11.30;68.55;101289.37;455838;116;922816;-73
2022/09/06 04:02:45;;;;;;;1.99;1.79;;;;;;;11.27;68.38;101287.06;455630;116;922478;-73
2022/09/06 04:03:48;;;;;;;1.74;1.63;;;;;;;11.25;68.25;101285.56;455541;116;923067;-73
2022/09/06 04:04:54;;;;;;;3.69;2.24;;;;;;;11.23;68.20;101284.94;455606;116;922535;-73
2022/09/06 04:05:57;;;;;;;2.36;2.15;;;;;;;11.20;68.31;101283.44;455443;116;922556;-73
2022/09/06 04:07:00;;;;;;;2.36;2.16;;;;;;;11.19;68.33;101287.21;455536;116;922869;-73
2022/09/06 04:08:04;;;;;;;2.02;1.92;;;;;;;11.19;68.28;101280.94;455667;116;922591;-73
2022/09/06 04:09:08;;;;;;;2.29;2.09;;;;;;;11.18;68.41;101287.44;455437;116;922576;-73
2022/09/06 04:10:12;;;;;;;4.01;2.41;;;;;;;11.20;68.69;101285.33;455570;116;922551;-73
2022/09/06 04:11:15;;;;;;;1.89;1.79;;;;;;;11.22;68.98;101289.55;455617;116;923089;-73
2022/09/06 04:12:20;;;;;;;3.63;1.99;;;;;;;11.26;69.29;101284.52;455537;116;922652;-73
2022/09/06 04:13:24;;;;;;;2.11;1.93;;;;;;;11.31;69.43;101287.48;455600;116;922550;-73
2022/09/06 04:14:27;;;;;;;2.32;2.12;;;;;;;11.34;69.65;101284.37;455545;116;923026;-73
2022/09/06 04:15:30;;;;;;;2.53;2.33;;;;;;;11.40;69.65;101293.63;456357;116;922885;-74
2022/09/06 04:16:33;;;;;;;2.09;1.99;;;;;;;11.43;69.74;101290.48;457326;116;922492;-73
2022/09/06 04:17:37;;;;;;;2.26;2.07;;;;;;;11.47;69.81;101289.02;457382;116;922665;-73
2022/09/06 04:18:40;;;;;;;2.33;2.19;;;;;;;11.50;69.88;101288.63;457421;116;922976;-73
2022/09/06 04:19:43;;;;;;;2.59;2.39;;;;;;;11.54;69.71;101289.91;457398;116;922403;-74
2022/09/06 04:20:51;;;;;;;2.39;2.14;;;;;;;11.54;69.56;101289.91;457426;115;922976;-73
2022/09/06 04:21:54;;;;;;;2.39;2.19;;;;;;;11.55;69.34;101295.17;457173;116;922650;-73
2022/09/06 04:22:57;;;;;;;2.67;1.95;;;;;;;11.53;69.03;101291.79;457333;115;923070;-73
2022/09/06 04:24:01;;;;;;;2.98;2.39;;;;;;;11.49;68.77;101295.14;457343;116;923329;-73
2022/09/06 04:25:06;;;;;;;3.21;2.45;;;;;;;11.44;68.60;101293.02;457281;116;922660;-73
2022/09/06 04:26:09;;;;;;;2.48;2.20;;;;;;;11.39;68.53;101300.98;457189;116;922477;-73
2022/09/06 04:27:12;;;;;;;2.46;2.26;;;;;;;11.35;68.44;101298.86;457314;116;922547;-72
2022/09/06 04:28:17;;;;;;;2.85;2.38;;;;;;;11.31;68.41;101298.41;457343;116;922943;-73
2022/09/06 04:29:20;;;;;;;3.32;2.38;;;;;;;11.27;68.49;101302.59;457154;114;923168;-71
2022/09/06 04:30:24;;;;;;;2.14;1.92;;;;;;;11.26;68.59;101298.17;459925;115;930239;-72
2022/09/06 04:31:27;;;;;;;2.01;1.88;;;;;;;11.26;68.79;101303.63;457986;115;922950;-71
2022/09/06 04:32:31;;;;;;;2.75;2.16;;;;;;;11.28;69.00;101299.67;457298;116;923030;-73
2022/09/06 04:33:37;;;;;;;2.10;1.91;;;;;;;11.32;69.19;101304.71;457505;113;923046;-73
2022/09/06 04:34:40;;;;;;;2.69;2.47;;;;;;;11.36;69.29;101306.83;466284;113;922977;-73
2022/09/06 04:35:48;;;;;;;2.36;2.21;;;;;;;11.41;69.52;101304.33;466483;113;923045;-73
2022/09/06 04:36:52;;;;;;;2.43;2.23;;;;;;;11.46;69.73;101295.55;466286;113;922490;-73
2022/09/06 04:37:55;;;;;;;2.80;2.19;;;;;;;11.50;69.91;101308.59;466470;113;922512;-73
2022/09/06 04:38:58;;;;;;;2.22;2.03;;;;;;;11.54;69.84;101301.67;466465;113;923188;-72
2022/09/06 04:40:01;;;;;;;2.10;1.98;;;;;;;11.58;69.67;101302.94;466513;113;923016;-74
2022/09/06 04:41:06;;;;;;;2.04;1.94;;;;;;;11.60;69.52;101297.28;466419;113;922868;-74
2022/09/06 04:42:09;;;;;;;2.09;1.89;;;;;;;11.61;69.52;101297.09;466214;113;930386;-73
2022/09/06 04:43:12;;;;;;;2.42;2.18;;;;;;;11.64;69.50;101298.55;466336;113;930303;-73
2022/09/06 04:44:16;;;;;;;2.10;1.90;;;;;;;11.65;69.63;101300.25;466472;113;922538;-73
2022/09/06 04:45:19;;;;;;;2.18;1.96;;;;;;;11.68;69.72;101297.13;466467;113;922639;-73
2022/09/06 04:46:25;;;;;;;2.26;2.06;;;;;;;11.71;69.77;101297.55;466431;113;923010;-73
2022/09/06 04:47:29;;;;;;;2.16;1.96;;;;;;;11.74;69.83;101304.53;449862;113;922662;-72
2022/09/06 04:48:32;;;;;;;2.09;1.99;;;;;;;11.78;69.85;101302.22;447341;116;923047;-72
2022/09/06 04:49:35;;;;;;;2.43;2.20;;;;;;;11.79;69.82;101296.56;447474;118;922606;-72
2022/09/06 04:50:39;;;;;;;2.27;2.17;;;;;;;11.82;69.58;101306.22;447485;118;922555;-73
2022/09/06 04:51:42;;;;;;;2.20;2.08;;;;;;;11.82;69.60;101298.02;447458;118;922620;-73
2022/09/06 04:52:45;;;;;;;2.76;2.19;;;;;;;11.83;69.62;101295.09;447453;118;922641;-74
2022/09/06 04:53:48;;;;;;;4.22;2.04;;;;;;;11.83;69.31;101302.45;447451;116;922539;-73
2022/09/06 04:54:51;;;;;;;2.82;1.94;;;;;;;11.81;69.16;101297.17;447466;118;923095;-74
2022/09/06 04:55:56;;;;;;;2.42;2.11;;;;;;;11.79;69.10;101299.30;447496;118;923120;-73
2022/09/06 04:57:00;;;;;;;2.04;1.72;;;;;;;11.78;69.29;101294.02;447301;118;923048;-73
2022/09/06 04:58:04;;;;;;;2.21;2.09;;;;;;;11.79;69.56;101288.36;447470;118;922908;-73
2022/09/06 04:59:07;;;;;;;2.29;2.07;;;;;;;11.82;69.76;101298.88;454967;116;923054;-73
2022/09/06 05:00:11;;;;;;;2.18;1.96;;;;;;;11.87;69.92;101298.25;455591;116;922730;-73
2022/09/06 05:01:15;;;;;;;2.12;1.98;;;;;;;11.90;70.04;101295.13;455535;116;923047;-73
2022/09/06 05:02:18;;;;;;;2.28;2.08;;;;;;;11.93;70.01;101291.96;455532;116;922957;-73
2022/09/06 05:03:22;;;;;;;2.93;2.00;;;;;;;11.94;69.85;101302.69;455804;116;923081;-73
2022/09/06 05:04:25;;;;;;;5.76;2.24;;;;;;;11.95;69.63;101298.92;455748;116;923040;-73
2022/09/06 05:05:28;;;;;;;3.59;2.22;;;;;;;11.95;69.74;101296.19;455772;116;922514;-73